sensor_id;sensor_type;location;lat;lon;timestamp;pressure;altitude;pressure_sealevel;temperature;humidity
30618;BME280;17384;51.214;9.202;2023-03-04T00:00:22;99357.53;;;-1.00;88.38
30618;BME280;17384;51.214;9.202;2023-03-04T00:02:48;99356.34;;;-1.08;88.32
30618;BME280;17384;51.214;9.202;2023-03-04T00:05:13;99362.09;;;-0.91;88.24
30618;BME280;17384;51.214;9.202;2023-03-04T00:07:39;99360.31;;;-0.81;87.48
30618;BME280;17384;51.214;9.202;2023-03-04T00:10:05;99348.69;;;-0.80;87.19
30618;BME280;17384;51.214;9.202;2023-03-04T00:12:30;99354.47;;;-0.96;87.77
30618;BME280;17384;51.214;9.202;2023-03-04T00:14:56;99362.09;;;-0.91;88.11
30618;BME280;17384;51.214;9.202;2023-03-04T00:17:21;99354.81;;;-0.89;88.33
30618;BME280;17384;51.214;9.202;2023-03-04T00:19:48;99347.00;;;-1.02;88.31
30618;BME280;17384;51.214;9.202;2023-03-04T00:22:14;99354.22;;;-0.93;88.75
30618;BME280;17384;51.214;9.202;2023-03-04T00:24:40;99352.91;;;-0.78;88.50
30618;BME280;17384;51.214;9.202;2023-03-04T00:27:05;99351.22;;;-0.79;88.43
30618;BME280;17384;51.214;9.202;2023-03-04T00:29:31;99349.22;;;-0.65;87.48
30618;BME280;17384;51.214;9.202;2023-03-04T00:31:56;99343.75;;;-0.64;87.13
30618;BME280;17384;51.214;9.202;2023-03-04T00:34:22;99346.22;;;-0.72;87.72
30618;BME280;17384;51.214;9.202;2023-03-04T00:36:47;99343.34;;;-0.80;88.04
30618;BME280;17384;51.214;9.202;2023-03-04T00:39:13;99353.47;;;-0.84;88.42
30618;BME280;17384;51.214;9.202;2023-03-04T00:41:39;99346.16;;;-0.82;88.04
30618;BME280;17384;51.214;9.202;2023-03-04T00:44:05;99331.81;;;-0.90;88.32
30618;BME280;17384;51.214;9.202;2023-03-04T00:46:30;99350.84;;;-0.95;88.96
30618;BME280;17384;51.214;9.202;2023-03-04T00:48:56;99338.84;;;-0.89;89.27
30618;BME280;17384;51.214;9.202;2023-03-04T00:51:21;99332.53;;;-0.88;89.11
30618;BME280;17384;51.214;9.202;2023-03-04T00:53:47;99332.78;;;-0.71;88.49
30618;BME280;17384;51.214;9.202;2023-03-04T00:56:12;99336.41;;;-0.72;88.18
30618;BME280;17384;51.214;9.202;2023-03-04T00:58:38;99328.09;;;-0.78;88.41
30618;BME280;17384;51.214;9.202;2023-03-04T01:01:05;99343.88;;;-0.65;88.24
30618;BME280;17384;51.214;9.202;2023-03-04T01:03:30;99328.53;;;-0.52;87.35
30618;BME280;17384;51.214;9.202;2023-03-04T01:05:58;99337.72;;;-0.66;87.53
30618;BME280;17384;51.214;9.202;2023-03-04T01:08:24;99330.63;;;-0.77;87.98
30618;BME280;17384;51.214;9.202;2023-03-04T01:10:50;99329.91;;;-0.79;88.65
30618;BME280;17384;51.214;9.202;2023-03-04T01:13:16;99319.59;;;-0.72;88.34
30618;BME280;17384;51.214;9.202;2023-03-04T01:15:41;99319.47;;;-0.71;89.18
30618;BME280;17384;51.214;9.202;2023-03-04T01:18:07;99330.25;;;-0.72;88.73
30618;BME280;17384;51.214;9.202;2023-03-04T01:20:32;99320.63;;;-0.63;88.73
30618;BME280;17384;51.214;9.202;2023-03-04T01:22:58;99310.09;;;-0.65;88.75
30618;BME280;17384;51.214;9.202;2023-03-04T01:25:23;99313.47;;;-0.63;88.76
30618;BME280;17384;51.214;9.202;2023-03-04T01:27:49;99313.94;;;-0.58;88.56
30618;BME280;17384;51.214;9.202;2023-03-04T01:30:14;99303.94;;;-0.65;88.43
30618;BME280;17384;51.214;9.202;2023-03-04T01:32:40;99299.00;;;-0.70;88.21
30618;BME280;17384;51.214;9.202;2023-03-04T01:35:06;99308.81;;;-0.71;88.68
30618;BME280;17384;51.214;9.202;2023-03-04T01:37:31;99309.13;;;-0.64;88.76
30618;BME280;17384;51.214;9.202;2023-03-04T01:39:57;99295.53;;;-0.61;88.53
30618;BME280;17384;51.214;9.202;2023-03-04T01:42:25;99294.56;;;-0.60;88.13
30618;BME280;17384;51.214;9.202;2023-03-04T01:44:52;99291.63;;;-0.57;88.14
30618;BME280;17384;51.214;9.202;2023-03-04T01:47:18;99291.34;;;-0.54;88.09
30618;BME280;17384;51.214;9.202;2023-03-04T01:49:53;99285.75;;;-0.51;87.91
30618;BME280;17384;51.214;9.202;2023-03-04T01:52:20;99287.44;;;-0.50;87.57
30618;BME280;17384;51.214;9.202;2023-03-04T01:54:47;99290.81;;;-0.48;87.50
30618;BME280;17384;51.214;9.202;2023-03-04T01:57:18;99293.03;;;-0.53;87.53
30618;BME280;17384;51.214;9.202;2023-03-04T01:59:45;99288.66;;;-0.63;87.81
30618;BME280;17384;51.214;9.202;2023-03-04T02:02:11;99285.34;;;-0.56;88.00
30618;BME280;17384;51.214;9.202;2023-03-04T02:04:38;99285.16;;;-0.54;87.89
30618;BME280;17384;51.214;9.202;2023-03-04T02:07:04;99281.41;;;-0.52;88.31
30618;BME280;17384;51.214;9.202;2023-03-04T02:09:31;99279.91;;;-0.45;88.19
30618;BME280;17384;51.214;9.202;2023-03-04T02:11:57;99274.91;;;-0.28;88.60
30618;BME280;17384;51.214;9.202;2023-03-04T02:14:23;99277.59;;;-0.19;88.96
30618;BME280;17384;51.214;9.202;2023-03-04T02:16:49;99282.97;;;-0.09;88.55
30618;BME280;17384;51.214;9.202;2023-03-04T02:22:02;99271.09;;;0.14;88.06
30618;BME280;17384;51.214;9.202;2023-03-04T02:27:02;99267.03;;;0.20;87.03
30618;BME280;17384;51.214;9.202;2023-03-04T02:29:28;99269.81;;;0.28;86.87
30618;BME280;17384;51.214;9.202;2023-03-04T02:31:53;99269.56;;;0.41;86.10
30618;BME280;17384;51.214;9.202;2023-03-04T02:34:30;99264.38;;;0.39;85.74
30618;BME280;17384;51.214;9.202;2023-03-04T02:36:58;99259.16;;;0.38;85.56
30618;BME280;17384;51.214;9.202;2023-03-04T02:39:33;99252.28;;;0.45;85.32
30618;BME280;17384;51.214;9.202;2023-03-04T02:42:00;99261.72;;;0.49;84.82
30618;BME280;17384;51.214;9.202;2023-03-04T02:44:34;99239.09;;;0.53;84.80
30618;BME280;17384;51.214;9.202;2023-03-04T02:47:01;99260.13;;;0.56;84.51
30618;BME280;17384;51.214;9.202;2023-03-04T02:49:29;99249.19;;;0.59;84.57
30618;BME280;17384;51.214;9.202;2023-03-04T02:52:04;99244.28;;;0.54;84.40
30618;BME280;17384;51.214;9.202;2023-03-04T02:54:30;99252.28;;;0.64;83.90
30618;BME280;17384;51.214;9.202;2023-03-04T02:56:58;99251.16;;;0.66;83.31
30618;BME280;17384;51.214;9.202;2023-03-04T02:59:24;99248.34;;;0.68;83.34
30618;BME280;17384;51.214;9.202;2023-03-04T03:01:50;99246.66;;;0.67;83.31
30618;BME280;17384;51.214;9.202;2023-03-04T03:04:17;99256.50;;;0.66;83.68
30618;BME280;17384;51.214;9.202;2023-03-04T03:06:44;99249.59;;;0.74;83.58
30618;BME280;17384;51.214;9.202;2023-03-04T03:09:09;99243.00;;;0.78;83.35
30618;BME280;17384;51.214;9.202;2023-03-04T03:11:35;99240.63;;;0.75;82.97
30618;BME280;17384;51.214;9.202;2023-03-04T03:14:01;99237.53;;;0.70;82.95
30618;BME280;17384;51.214;9.202;2023-03-04T03:16:27;99251.44;;;0.73;82.98
30618;BME280;17384;51.214;9.202;2023-03-04T03:18:52;99246.78;;;0.75;83.16
30618;BME280;17384;51.214;9.202;2023-03-04T03:21:18;99230.63;;;0.77;82.61
30618;BME280;17384;51.214;9.202;2023-03-04T03:23:43;99235.56;;;0.81;82.30
30618;BME280;17384;51.214;9.202;2023-03-04T03:26:09;99239.72;;;0.93;81.49
30618;BME280;17384;51.214;9.202;2023-03-04T03:28:35;99236.06;;;0.94;81.27
30618;BME280;17384;51.214;9.202;2023-03-04T03:31:00;99222.44;;;0.97;81.14
30618;BME280;17384;51.214;9.202;2023-03-04T03:33:26;99228.91;;;0.95;81.16
30618;BME280;17384;51.214;9.202;2023-03-04T03:35:52;99222.56;;;0.96;81.42
30618;BME280;17384;51.214;9.202;2023-03-04T03:38:18;99231.00;;;1.01;81.16
30618;BME280;17384;51.214;9.202;2023-03-04T03:40:43;99226.09;;;0.96;81.39
30618;BME280;17384;51.214;9.202;2023-03-04T03:43:08;99234.53;;;1.01;81.52
30618;BME280;17384;51.214;9.202;2023-03-04T03:45:34;99233.38;;;1.04;81.44
30618;BME280;17384;51.214;9.202;2023-03-04T03:47:59;99218.50;;;1.01;81.12
30618;BME280;17384;51.214;9.202;2023-03-04T03:50:25;99229.88;;;1.04;81.36
30618;BME280;17384;51.214;9.202;2023-03-04T03:52:50;99230.88;;;1.02;81.48
30618;BME280;17384;51.214;9.202;2023-03-04T03:55:16;99227.19;;;1.04;81.24
30618;BME280;17384;51.214;9.202;2023-03-04T03:57:42;99220.19;;;1.02;81.29
30618;BME280;17384;51.214;9.202;2023-03-04T04:00:08;99232.97;;;1.09;81.44
30618;BME280;17384;51.214;9.202;2023-03-04T04:02:34;99232.13;;;1.08;80.67
30618;BME280;17384;51.214;9.202;2023-03-04T04:04:59;99221.72;;;1.05;80.91
30618;BME280;17384;51.214;9.202;2023-03-04T04:07:25;99217.31;;;1.14;80.31
30618;BME280;17384;51.214;9.202;2023-03-04T04:09:50;99219.28;;;1.12;80.54
30618;BME280;17384;51.214;9.202;2023-03-04T04:12:17;99224.34;;;1.15;80.29
30618;BME280;17384;51.214;9.202;2023-03-04T04:14:43;99223.50;;;1.14;80.13
30618;BME280;17384;51.214;9.202;2023-03-04T04:17:09;99218.00;;;1.16;79.79
30618;BME280;17384;51.214;9.202;2023-03-04T04:19:35;99235.28;;;1.21;79.65
30618;BME280;17384;51.214;9.202;2023-03-04T04:22:01;99232.47;;;1.23;79.84
30618;BME280;17384;51.214;9.202;2023-03-04T04:24:27;99226.28;;;1.22;79.58
30618;BME280;17384;51.214;9.202;2023-03-04T04:26:52;99231.94;;;1.19;79.64
30618;BME280;17384;51.214;9.202;2023-03-04T04:29:18;99220.94;;;1.22;79.28
30618;BME280;17384;51.214;9.202;2023-03-04T04:31:43;99231.19;;;1.27;79.28
30618;BME280;17384;51.214;9.202;2023-03-04T04:34:09;99216.72;;;1.20;79.72
30618;BME280;17384;51.214;9.202;2023-03-04T04:36:35;99230.78;;;1.22;79.88
30618;BME280;17384;51.214;9.202;2023-03-04T04:39:00;99228.81;;;1.24;79.85
30618;BME280;17384;51.214;9.202;2023-03-04T04:41:29;99215.75;;;1.21;80.23
30618;BME280;17384;51.214;9.202;2023-03-04T04:43:56;99215.88;;;1.29;79.74
30618;BME280;17384;51.214;9.202;2023-03-04T04:46:22;99220.50;;;1.27;79.86
30618;BME280;17384;51.214;9.202;2023-03-04T04:48:48;99219.38;;;1.29;79.94
30618;BME280;17384;51.214;9.202;2023-03-04T04:51:14;99218.00;;;1.25;79.76
30618;BME280;17384;51.214;9.202;2023-03-04T04:53:39;99205.88;;;1.31;79.76
30618;BME280;17384;51.214;9.202;2023-03-04T04:56:13;99208.00;;;1.27;79.38
30618;BME280;17384;51.214;9.202;2023-03-04T04:58:39;99214.31;;;1.26;79.58
30618;BME280;17384;51.214;9.202;2023-03-04T05:01:05;99216.31;;;1.24;79.77
30618;BME280;17384;51.214;9.202;2023-03-04T05:03:32;99208.13;;;1.26;80.10
30618;BME280;17384;51.214;9.202;2023-03-04T05:05:58;99212.78;;;1.24;79.88
30618;BME280;17384;51.214;9.202;2023-03-04T05:08:24;99212.50;;;1.27;79.85
30618;BME280;17384;51.214;9.202;2023-03-04T05:10:49;99206.03;;;1.20;80.29
30618;BME280;17384;51.214;9.202;2023-03-04T05:13:15;99217.56;;;1.30;79.66
30618;BME280;17384;51.214;9.202;2023-03-04T05:15:41;99204.19;;;1.30;79.57
30618;BME280;17384;51.214;9.202;2023-03-04T05:18:06;99213.91;;;1.31;79.36
30618;BME280;17384;51.214;9.202;2023-03-04T05:20:32;99212.75;;;1.33;79.37
30618;BME280;17384;51.214;9.202;2023-03-04T05:22:57;99207.94;;;1.37;79.20
30618;BME280;17384;51.214;9.202;2023-03-04T05:25:23;99217.25;;;1.33;78.93
30618;BME280;17384;51.214;9.202;2023-03-04T05:27:48;99205.59;;;1.34;79.18
30618;BME280;17384;51.214;9.202;2023-03-04T05:30:14;99206.28;;;1.36;78.93
30618;BME280;17384;51.214;9.202;2023-03-04T05:32:39;99209.72;;;1.46;78.84
30618;BME280;17384;51.214;9.202;2023-03-04T05:35:05;99210.72;;;1.45;78.48
30618;BME280;17384;51.214;9.202;2023-03-04T05:37:31;99218.75;;;1.45;78.71
30618;BME280;17384;51.214;9.202;2023-03-04T05:39:56;99215.78;;;1.48;78.55
30618;BME280;17384;51.214;9.202;2023-03-04T05:42:21;99205.94;;;1.49;78.74
30618;BME280;17384;51.214;9.202;2023-03-04T05:44:47;99208.19;;;1.44;78.77
30618;BME280;17384;51.214;9.202;2023-03-04T05:47:12;99212.56;;;1.45;78.96
30618;BME280;17384;51.214;9.202;2023-03-04T05:49:38;99211.31;;;1.39;79.52
30618;BME280;17384;51.214;9.202;2023-03-04T05:52:05;99208.78;;;1.38;79.59
30618;BME280;17384;51.214;9.202;2023-03-04T05:54:30;99211.31;;;1.39;79.32
30618;BME280;17384;51.214;9.202;2023-03-04T05:56:56;99218.34;;;1.40;79.19
30618;BME280;17384;51.214;9.202;2023-03-04T05:59:21;99202.28;;;1.40;79.03
30618;BME280;17384;51.214;9.202;2023-03-04T06:01:48;99218.75;;;1.45;78.82
30618;BME280;17384;51.214;9.202;2023-03-04T06:04:14;99220.28;;;1.48;78.43
30618;BME280;17384;51.214;9.202;2023-03-04T06:06:39;99213.25;;;1.47;78.78
30618;BME280;17384;51.214;9.202;2023-03-04T06:09:05;99220.28;;;1.48;78.97
30618;BME280;17384;51.214;9.202;2023-03-04T06:11:30;99212.66;;;1.53;78.33
30618;BME280;17384;51.214;9.202;2023-03-04T06:13:56;99225.88;;;1.54;78.65
30618;BME280;17384;51.214;9.202;2023-03-04T06:16:21;99219.97;;;1.60;78.18
30618;BME280;17384;51.214;9.202;2023-03-04T06:18:47;99226.28;;;1.59;78.27
30618;BME280;17384;51.214;9.202;2023-03-04T06:21:12;99224.31;;;1.61;78.42
30618;BME280;17384;51.214;9.202;2023-03-04T06:23:38;99236.69;;;1.62;78.27
30618;BME280;17384;51.214;9.202;2023-03-04T06:26:03;99246.69;;;1.60;78.15
30618;BME280;17384;51.214;9.202;2023-03-04T06:28:33;99229.25;;;1.56;78.65
30618;BME280;17384;51.214;9.202;2023-03-04T06:30:59;99237.53;;;1.63;78.94
30618;BME280;17384;51.214;9.202;2023-03-04T06:33:25;99223.63;;;1.59;78.68
30618;BME280;17384;51.214;9.202;2023-03-04T06:35:55;99239.50;;;1.61;78.55
30618;BME280;17384;51.214;9.202;2023-03-04T06:38:22;99238.19;;;1.65;78.38
30618;BME280;17384;51.214;9.202;2023-03-04T06:40:47;99242.25;;;1.69;77.74
30618;BME280;17384;51.214;9.202;2023-03-04T06:43:13;99242.56;;;1.66;77.99
30618;BME280;17384;51.214;9.202;2023-03-04T06:45:38;99247.47;;;1.70;77.86
30618;BME280;17384;51.214;9.202;2023-03-04T06:48:04;99243.09;;;1.69;78.29
30618;BME280;17384;51.214;9.202;2023-03-04T06:50:30;99249.00;;;1.73;78.22
30618;BME280;17384;51.214;9.202;2023-03-04T06:52:56;99251.28;;;1.68;78.38
30618;BME280;17384;51.214;9.202;2023-03-04T06:55:21;99241.13;;;1.72;78.23
30618;BME280;17384;51.214;9.202;2023-03-04T06:57:47;99244.66;;;1.72;78.35
30618;BME280;17384;51.214;9.202;2023-03-04T07:00:13;99252.53;;;1.74;78.53
30618;BME280;17384;51.214;9.202;2023-03-04T07:02:38;99242.66;;;1.74;78.82
30618;BME280;17384;51.214;9.202;2023-03-04T07:05:04;99246.72;;;1.78;78.45
30618;BME280;17384;51.214;9.202;2023-03-04T07:07:30;99240.53;;;1.78;78.31
30618;BME280;17384;51.214;9.202;2023-03-04T07:09:55;99243.91;;;1.80;78.39
30618;BME280;17384;51.214;9.202;2023-03-04T07:12:21;99247.72;;;1.77;78.82
30618;BME280;17384;51.214;9.202;2023-03-04T07:14:46;99247.13;;;1.83;78.94
30618;BME280;17384;51.214;9.202;2023-03-04T07:17:12;99250.34;;;1.87;78.65
30618;BME280;17384;51.214;9.202;2023-03-04T07:19:37;99245.38;;;1.92;78.63
30618;BME280;17384;51.214;9.202;2023-03-04T07:22:03;99241.06;;;1.91;78.70
30618;BME280;17384;51.214;9.202;2023-03-04T07:24:29;99244.78;;;1.98;78.38
30618;BME280;17384;51.214;9.202;2023-03-04T07:26:54;99238.59;;;1.97;78.53
30618;BME280;17384;51.214;9.202;2023-03-04T07:29:20;99250.97;;;1.98;78.63
30618;BME280;17384;51.214;9.202;2023-03-04T07:31:45;99241.81;;;2.01;79.15
30618;BME280;17384;51.214;9.202;2023-03-04T07:34:12;99247.84;;;2.03;78.85
30618;BME280;17384;51.214;9.202;2023-03-04T07:36:39;99248.44;;;1.97;79.29
30618;BME280;17384;51.214;9.202;2023-03-04T07:39:05;99255.88;;;2.03;79.01
30618;BME280;17384;51.214;9.202;2023-03-04T07:41:31;99249.94;;;2.09;78.74
30618;BME280;17384;51.214;9.202;2023-03-04T07:44:01;99253.84;;;2.15;79.16
30618;BME280;17384;51.214;9.202;2023-03-04T07:46:27;99250.94;;;2.08;79.32
30618;BME280;17384;51.214;9.202;2023-03-04T07:48:54;99254.00;;;2.13;79.55
30618;BME280;17384;51.214;9.202;2023-03-04T07:51:22;99250.69;;;2.19;79.59
30618;BME280;17384;51.214;9.202;2023-03-04T07:53:54;99250.88;;;2.18;79.70
30618;BME280;17384;51.214;9.202;2023-03-04T07:56:23;99249.69;;;2.20;79.64
30618;BME280;17384;51.214;9.202;2023-03-04T07:58:50;99253.38;;;2.19;79.73
30618;BME280;17384;51.214;9.202;2023-03-04T08:01:24;99258.13;;;2.25;79.64
30618;BME280;17384;51.214;9.202;2023-03-04T08:03:50;99258.56;;;2.21;79.52
30618;BME280;17384;51.214;9.202;2023-03-04T08:06:17;99254.84;;;2.31;79.40
30618;BME280;17384;51.214;9.202;2023-03-04T08:08:44;99259.66;;;2.28;79.64
30618;BME280;17384;51.214;9.202;2023-03-04T08:11:12;99246.75;;;2.41;79.00
30618;BME280;17384;51.214;9.202;2023-03-04T08:13:38;99252.94;;;2.59;78.82
30618;BME280;17384;51.214;9.202;2023-03-04T08:16:04;99246.66;;;2.68;77.82
30618;BME280;17384;51.214;9.202;2023-03-04T08:18:30;99251.47;;;2.83;77.18
30618;BME280;17384;51.214;9.202;2023-03-04T08:20:56;99258.28;;;2.95;77.21
30618;BME280;17384;51.214;9.202;2023-03-04T08:23:21;99252.63;;;3.06;76.79
30618;BME280;17384;51.214;9.202;2023-03-04T08:25:47;99250.63;;;3.08;76.78
30618;BME280;17384;51.214;9.202;2023-03-04T08:28:13;99246.28;;;3.07;76.40
30618;BME280;17384;51.214;9.202;2023-03-04T08:30:39;99258.81;;;3.24;76.74
30618;BME280;17384;51.214;9.202;2023-03-04T08:33:05;99259.50;;;3.26;76.46
30618;BME280;17384;51.214;9.202;2023-03-04T08:35:31;99250.09;;;3.56;75.73
30618;BME280;17384;51.214;9.202;2023-03-04T08:37:57;99245.25;;;4.02;74.53
30618;BME280;17384;51.214;9.202;2023-03-04T08:40:23;99239.66;;;4.37;73.12
30618;BME280;17384;51.214;9.202;2023-03-04T08:42:50;99253.59;;;4.49;72.33
30618;BME280;17384;51.214;9.202;2023-03-04T08:45:16;99234.97;;;4.64;71.33
30618;BME280;17384;51.214;9.202;2023-03-04T08:47:42;99240.50;;;5.19;70.60
30618;BME280;17384;51.214;9.202;2023-03-04T08:50:08;99236.38;;;5.48;68.13
30618;BME280;17384;51.214;9.202;2023-03-04T08:52:34;99236.59;;;5.30;68.09
30618;BME280;17384;51.214;9.202;2023-03-04T08:54:59;99238.44;;;5.37;67.26
30618;BME280;17384;51.214;9.202;2023-03-04T08:57:25;99236.59;;;5.30;68.34
30618;BME280;17384;51.214;9.202;2023-03-04T08:59:50;99227.91;;;4.95;69.21
30618;BME280;17384;51.214;9.202;2023-03-04T09:02:16;99227.75;;;4.72;69.10
30618;BME280;17384;51.214;9.202;2023-03-04T09:04:41;99228.25;;;4.68;69.71
30618;BME280;17384;51.214;9.202;2023-03-04T09:07:07;99230.25;;;4.50;69.96
30618;BME280;17384;51.214;9.202;2023-03-04T09:09:34;99236.59;;;4.40;70.67
30618;BME280;17384;51.214;9.202;2023-03-04T09:11:59;99229.25;;;4.34;71.30
30618;BME280;17384;51.214;9.202;2023-03-04T09:14:25;99238.94;;;4.27;72.07
30618;BME280;17384;51.214;9.202;2023-03-04T09:16:50;99227.88;;;4.30;71.50
30618;BME280;17384;51.214;9.202;2023-03-04T09:19:16;99227.69;;;4.24;71.27
30618;BME280;17384;51.214;9.202;2023-03-04T09:21:41;99241.25;;;4.06;72.04
30618;BME280;17384;51.214;9.202;2023-03-04T09:24:07;99237.56;;;4.07;72.23
30618;BME280;17384;51.214;9.202;2023-03-04T09:26:32;99233.38;;;4.13;72.17
30618;BME280;17384;51.214;9.202;2023-03-04T09:28:59;99226.16;;;4.13;71.84
30618;BME280;17384;51.214;9.202;2023-03-04T09:31:26;99225.66;;;4.18;72.53
30618;BME280;17384;51.214;9.202;2023-03-04T09:33:54;99231.75;;;4.36;72.15
30618;BME280;17384;51.214;9.202;2023-03-04T09:36:20;99231.94;;;4.59;71.36
30618;BME280;17384;51.214;9.202;2023-03-04T09:38:46;99234.81;;;4.73;70.96
30618;BME280;17384;51.214;9.202;2023-03-04T09:41:21;99224.53;;;4.93;70.41
30618;BME280;17384;51.214;9.202;2023-03-04T09:43:49;99227.06;;;5.03;69.15
30618;BME280;17384;51.214;9.202;2023-03-04T09:46:19;99226.22;;;4.94;69.40
30618;BME280;17384;51.214;9.202;2023-03-04T09:48:51;99230.63;;;4.87;69.59
30618;BME280;17384;51.214;9.202;2023-03-04T09:51:26;99239.31;;;4.49;70.82
30618;BME280;17384;51.214;9.202;2023-03-04T09:54:10;99223.53;;;4.54;71.51
30618;BME280;17384;51.214;9.202;2023-03-04T09:56:40;99224.72;;;4.67;71.42
30618;BME280;17384;51.214;9.202;2023-03-04T09:59:24;99243.56;;;4.92;71.51
30618;BME280;17384;51.214;9.202;2023-03-04T10:01:53;99238.50;;;4.81;72.24
30618;BME280;17384;51.214;9.202;2023-03-04T10:04:28;99236.97;;;4.54;72.58
30618;BME280;17384;51.214;9.202;2023-03-04T10:06:54;99235.66;;;4.58;72.87
30618;BME280;17384;51.214;9.202;2023-03-04T10:09:28;99228.22;;;4.43;73.41
30618;BME280;17384;51.214;9.202;2023-03-04T10:14:51;99240.84;;;4.67;73.63
30618;BME280;17384;51.214;9.202;2023-03-04T10:17:28;99236.66;;;4.81;72.78
30618;BME280;17384;51.214;9.202;2023-03-04T10:22:51;99228.75;;;4.80;73.09
30618;BME280;17384;51.214;9.202;2023-03-04T10:25:21;99222.19;;;4.98;72.95
30618;BME280;17384;51.214;9.202;2023-03-04T10:27:58;99218.66;;;4.98;72.89
30618;BME280;17384;51.214;9.202;2023-03-04T10:30:42;99225.88;;;4.97;73.56
30618;BME280;17384;51.214;9.202;2023-03-04T10:33:18;99219.50;;;4.74;74.54
30618;BME280;17384;51.214;9.202;2023-03-04T10:38:38;99222.38;;;4.72;74.41
30618;BME280;17384;51.214;9.202;2023-03-04T10:41:20;99210.09;;;4.70;73.96
30618;BME280;17384;51.214;9.202;2023-03-04T10:44:01;99218.19;;;4.78;74.63
30618;BME280;17384;51.214;9.202;2023-03-04T10:46:28;99217.34;;;4.61;74.65
30618;BME280;17384;51.214;9.202;2023-03-04T10:48:54;99212.47;;;4.73;74.71
30618;BME280;17384;51.214;9.202;2023-03-04T10:51:25;99210.78;;;4.80;74.52
30618;BME280;17384;51.214;9.202;2023-03-04T10:54:06;99210.78;;;4.80;74.49
30618;BME280;17384;51.214;9.202;2023-03-04T10:56:39;99205.75;;;4.85;73.93
30618;BME280;17384;51.214;9.202;2023-03-04T11:02:39;99203.69;;;4.95;74.56
30618;BME280;17384;51.214;9.202;2023-03-04T11:05:21;99199.63;;;5.24;73.70
30618;BME280;17384;51.214;9.202;2023-03-04T11:07:59;99199.09;;;5.36;73.48
30618;BME280;17384;51.214;9.202;2023-03-04T11:13:07;99198.03;;;4.90;74.16
30618;BME280;17384;51.214;9.202;2023-03-04T11:16:02;99190.78;;;4.91;74.29
30618;BME280;17384;51.214;9.202;2023-03-04T11:18:44;99202.88;;;4.87;74.65
30618;BME280;17384;51.214;9.202;2023-03-04T11:21:24;99184.03;;;5.03;74.37
30618;BME280;17384;51.214;9.202;2023-03-04T11:23:57;99195.63;;;5.03;74.14
30618;BME280;17384;51.214;9.202;2023-03-04T11:26:41;99202.38;;;4.91;74.61
30618;BME280;17384;51.214;9.202;2023-03-04T11:31:57;99181.22;;;4.72;75.67
30618;BME280;17384;51.214;9.202;2023-03-04T11:34:45;99183.41;;;4.85;75.03
30618;BME280;17384;51.214;9.202;2023-03-04T11:39:58;99188.41;;;4.96;74.81
30618;BME280;17384;51.214;9.202;2023-03-04T11:42:45;99194.28;;;5.07;74.66
30618;BME280;17384;51.214;9.202;2023-03-04T11:45:19;99191.59;;;5.16;74.40
30618;BME280;17384;51.214;9.202;2023-03-04T11:53:03;99186.75;;;4.87;74.31
30618;BME280;17384;51.214;9.202;2023-03-04T12:00:50;99172.63;;;4.93;75.01
30618;BME280;17384;51.214;9.202;2023-03-04T12:09:15;99169.91;;;5.17;74.34
30618;BME280;17384;51.214;9.202;2023-03-04T12:20:56;99142.78;;;5.27;73.67
30618;BME280;17384;51.214;9.202;2023-03-04T12:26:42;99153.63;;;5.02;73.98
30618;BME280;17384;51.214;9.202;2023-03-04T12:29:21;99153.78;;;4.93;73.85
30618;BME280;17384;51.214;9.202;2023-03-04T12:40:22;99138.16;;;4.96;72.87
30618;BME280;17384;51.214;9.202;2023-03-04T12:48:50;99134.84;;;4.70;73.40
30618;BME280;17384;51.214;9.202;2023-03-04T12:54:31;99132.34;;;4.85;73.79
30618;BME280;17384;51.214;9.202;2023-03-04T13:08:38;99118.56;;;4.88;71.25
30618;BME280;17384;51.214;9.202;2023-03-04T13:14:26;99113.78;;;5.06;71.87
30618;BME280;17384;51.214;9.202;2023-03-04T13:16:55;99120.94;;;5.22;71.18
30618;BME280;17384;51.214;9.202;2023-03-04T13:22:41;99109.34;;;5.21;70.52
30618;BME280;17384;51.214;9.202;2023-03-04T13:28:32;99095.81;;;5.06;70.13
30618;BME280;17384;51.214;9.202;2023-03-04T13:36:07;99090.13;;;5.40;70.45
30618;BME280;17384;51.214;9.202;2023-03-04T13:41:49;99064.66;;;5.51;69.50
30618;BME280;17384;51.214;9.202;2023-03-04T13:44:36;99071.06;;;5.50;69.10
30618;BME280;17384;51.214;9.202;2023-03-04T13:47:21;99075.44;;;5.51;69.14
30618;BME280;17384;51.214;9.202;2023-03-04T13:52:45;99074.69;;;5.65;68.59
30618;BME280;17384;51.214;9.202;2023-03-04T13:57:55;99065.09;;;5.63;68.89
30618;BME280;17384;51.214;9.202;2023-03-04T14:00:20;99058.00;;;5.70;69.16
30618;BME280;17384;51.214;9.202;2023-03-04T14:02:46;99062.25;;;5.64;69.31
30618;BME280;17384;51.214;9.202;2023-03-04T14:05:12;99058.88;;;5.62;68.80
30618;BME280;17384;51.214;9.202;2023-03-04T14:07:37;99049.69;;;5.49;70.00
30618;BME280;17384;51.214;9.202;2023-03-04T14:12:41;99060.19;;;5.43;70.49
30618;BME280;17384;51.214;9.202;2023-03-04T14:17:37;99061.56;;;5.31;70.86
30618;BME280;17384;51.214;9.202;2023-03-04T14:20:20;99050.56;;;5.18;71.43
30618;BME280;17384;51.214;9.202;2023-03-04T14:22:46;99039.03;;;5.01;72.11
30618;BME280;17384;51.214;9.202;2023-03-04T14:27:43;99038.16;;;5.09;72.80
30618;BME280;17384;51.214;9.202;2023-03-04T14:30:23;99038.34;;;4.99;72.66
30618;BME280;17384;51.214;9.202;2023-03-04T14:32:51;99043.06;;;4.97;73.77
30618;BME280;17384;51.214;9.202;2023-03-04T14:35:19;99038.09;;;4.86;74.13
30618;BME280;17384;51.214;9.202;2023-03-04T14:40:52;99039.72;;;4.95;74.64
30618;BME280;17384;51.214;9.202;2023-03-04T14:43:21;99026.94;;;4.97;74.62
30618;BME280;17384;51.214;9.202;2023-03-04T14:45:50;99023.91;;;5.00;74.78
30618;BME280;17384;51.214;9.202;2023-03-04T14:48:29;99028.25;;;5.09;74.76
30618;BME280;17384;51.214;9.202;2023-03-04T14:50:56;99026.22;;;5.12;74.41
30618;BME280;17384;51.214;9.202;2023-03-04T14:53:31;99025.91;;;5.06;75.30
30618;BME280;17384;51.214;9.202;2023-03-04T14:56:06;99030.94;;;5.09;75.00
30618;BME280;17384;51.214;9.202;2023-03-04T14:58:38;99018.97;;;5.12;74.85
30618;BME280;17384;51.214;9.202;2023-03-04T15:01:20;99024.69;;;5.17;74.46
30618;BME280;17384;51.214;9.202;2023-03-04T15:06:25;99012.06;;;5.18;74.43
30618;BME280;17384;51.214;9.202;2023-03-04T15:09:05;99014.94;;;5.16;74.72
30618;BME280;17384;51.214;9.202;2023-03-04T15:11:44;99012.41;;;5.15;74.90
30618;BME280;17384;51.214;9.202;2023-03-04T15:17:21;99005.25;;;4.99;75.56